Weather at Danville Municipal Airport

Public forecast

Using degrees Fahrenheit for public forecast. Weather courtesy of forecast.io.

Closest aviation weather report (METAR) to Danville Municipal Airport

Closest report is Russellville Regional Airport, 19.4 nm (35.9 km) ENE. Retrieved 2022/06/29 21:53 UTC (10 minutes ago):

KRUE 292153Z AUTO 10005KT 10SM CLR 32/09 A3012 RMK AO2 SLP192 T03170094

Closest aviation forecast (TAF) to Danville Municipal Airport

Closest forecast is Memorial Field, 40.0 nm (74.2 km) SSE. Retrieved 2022/06/29 18:22 UTC (4 hours ago):

TAF KHOT 291720Z 2918/3018 09008KT P6SM FEW250 FM300200 VRB03KT P6SM SCT250 FM301500 12004KT P6SM SKC